Time;durP1;ratioP1;P1;durP2;ratioP2;P2;SDS_P1;SDS_P2;PMS_P1;PMS_P2;Temp;Humidity;BMP_temperature;BMP_pressure;BME280_temperature;BME280_humidity;BME280_pressure;Samples;Min_cycle;Max_cycle;Signal;HPM_P1;HPM_P2
2023/06/04 00:00:05;;;;;;;4.65;3.20;;;;;;;6.34;71.83;100013.47;5052245;28;20112;-62
2023/06/04 00:02:34;;;;;;;5.75;2.72;;;;;;;6.31;71.64;100005.69;5051670;28;20098;-63
2023/06/04 00:04:59;;;;;;;8.15;3.15;;;;;;;6.29;71.92;99999.59;5035360;28;20036;-62
2023/06/04 00:07:25;;;;;;;8.68;3.60;;;;;;;6.26;72.13;99999.75;5052534;28;20032;-63
2023/06/04 00:09:52;;;;;;;9.65;4.20;;;;;;;6.26;72.02;100010.41;5052385;28;20047;-64
2023/06/04 00:12:18;;;;;;;6.80;3.35;;;;;;;6.23;72.51;100015.91;5052588;28;20061;-62
2023/06/04 00:14:43;;;;;;;7.10;4.10;;;;;;;6.20;72.64;100014.31;5034945;28;20029;-67
2023/06/04 00:17:10;;;;;;;9.90;6.00;;;;;;;6.20;72.80;100016.09;5034753;28;20033;-62
2023/06/04 00:19:38;;;;;;;8.50;4.65;;;;;;;6.18;72.41;100022.34;5031386;28;20119;-63
2023/06/04 00:22:06;;;;;;;8.35;5.15;;;;;;;6.15;72.54;100025.19;5027387;28;20052;-61
2023/06/04 00:24:32;;;;;;;12.05;4.30;;;;;;;6.18;72.83;100027.69;5011905;28;20121;-62
2023/06/04 00:26:58;;;;;;;6.78;3.20;;;;;;;6.17;72.66;100028.63;5012841;28;20117;-62
2023/06/04 00:29:23;;;;;;;9.90;3.45;;;;;;;6.15;72.83;100024.38;5012732;28;20034;-63
2023/06/04 00:31:48;;;;;;;9.48;3.15;;;;;;;6.15;72.45;100019.88;5011930;28;20033;-63
2023/06/04 00:34:14;;;;;;;11.52;2.88;;;;;;;5.91;71.99;99982.31;5012737;28;20038;-74
2023/06/04 00:36:40;;;;;;;9.02;3.35;;;;;;;6.07;72.44;100011.53;5013686;28;20025;-64
2023/06/04 00:39:06;;;;;;;5.35;3.17;;;;;;;6.11;72.57;100026.34;5036520;28;20072;-63
2023/06/04 00:41:31;;;;;;;7.07;3.25;;;;;;;6.08;72.15;100026.53;5034813;28;20452;-64
2023/06/04 00:43:57;;;;;;;5.07;2.45;;;;;;;6.05;72.54;100021.38;5025708;28;20084;-63
2023/06/04 00:46:25;;;;;;;6.70;3.30;;;;;;;6.09;71.95;100022.91;5015415;28;20037;-62
2023/06/04 00:48:52;;;;;;;9.27;2.80;;;;;;;6.08;71.79;100031.84;5016095;28;20034;-62
2023/06/04 00:51:18;;;;;;;3.45;2.80;;;;;;;6.06;72.04;100044.38;5017074;28;20037;-64
2023/06/04 00:53:44;;;;;;;6.55;2.90;;;;;;;6.09;72.37;100040.66;5016667;28;20038;-62
2023/06/04 00:56:09;;;;;;;9.15;3.00;;;;;;;6.06;72.33;100039.03;5015017;28;20442;-61
2023/06/04 00:58:39;;;;;;;5.10;2.70;;;;;;;6.11;72.27;100062.69;5015799;28;20029;-63
2023/06/04 01:01:09;;;;;;;9.07;2.53;;;;;;;6.09;72.05;100054.81;5016010;28;20049;-63
2023/06/04 01:03:42;;;;;;;7.50;2.55;;;;;;;6.09;71.83;100059.25;5017073;28;20488;-64
2023/06/04 01:06:10;;;;;;;5.88;2.80;;;;;;;6.12;72.20;100059.06;5034466;28;20026;-63
2023/06/04 01:08:37;;;;;;;7.85;2.72;;;;;;;6.10;71.97;100060.97;5035591;28;20068;-62
2023/06/04 01:11:02;;;;;;;6.00;2.50;;;;;;;6.07;71.87;100050.53;5035661;28;20026;-63
2023/06/04 01:13:28;;;;;;;8.13;2.80;;;;;;;5.87;71.80;100017.94;5035596;28;20449;-63
2023/06/04 01:15:53;;;;;;;4.35;2.60;;;;;;;6.11;71.18;100052.03;5034566;28;20119;-62
2023/06/04 01:18:29;;;;;;;4.40;2.40;;;;;;;6.16;71.61;100064.13;5040055;28;20468;-63
2023/06/04 01:21:01;;;;;;;6.45;2.60;;;;;;;6.18;71.50;100070.22;5038276;28;20033;-63
2023/06/04 01:23:33;;;;;;;6.07;2.85;;;;;;;6.17;71.51;100065.00;5055389;28;20090;-63
2023/06/04 01:26:03;;;;;;;4.22;2.25;;;;;;;6.08;71.09;100055.75;5054501;28;20568;-62
2023/06/04 01:28:30;;;;;;;5.93;2.25;;;;;;;6.15;71.28;100065.06;5054918;28;20067;-63
2023/06/04 01:30:57;;;;;;;2.95;2.35;;;;;;;5.98;71.15;100038.59;5037787;28;20024;-63
2023/06/04 01:33:23;;;;;;;4.97;2.20;;;;;;;6.01;71.02;100038.44;5054786;28;20040;-64
2023/06/04 01:35:49;;;;;;;6.32;2.08;;;;;;;6.27;70.34;100076.78;5037406;28;20040;-64
2023/06/04 01:38:15;;;;;;;5.90;2.13;;;;;;;6.27;70.65;100075.94;5055089;28;20037;-63
2023/06/04 01:40:41;;;;;;;3.28;2.17;;;;;;;6.29;70.50;100079.38;5055211;28;20108;-64
2023/06/04 01:43:07;;;;;;;5.00;1.95;;;;;;;6.29;70.35;100076.72;5037587;28;20025;-62
2023/06/04 01:45:33;;;;;;;5.50;2.20;;;;;;;6.32;70.14;100092.50;5054030;28;20025;-63
2023/06/04 01:48:01;;;;;;;4.00;2.30;;;;;;;6.39;69.81;100091.19;5054516;28;20090;-63
2023/06/04 01:50:26;;;;;;;7.03;2.20;;;;;;;6.39;70.10;100085.84;5037090;28;20039;-63
2023/06/04 01:52:53;;;;;;;7.47;2.28;;;;;;;6.44;69.92;100086.44;5054943;28;20033;-62
2023/06/04 01:55:19;;;;;;;6.00;1.95;;;;;;;6.46;69.71;100084.53;5054757;28;20124;-70
2023/06/04 01:57:47;;;;;;;3.63;2.00;;;;;;;6.50;69.66;100089.66;5054883;28;20055;-62
2023/06/04 02:00:14;;;;;;;5.43;2.00;;;;;;;6.55;69.66;100096.44;5054389;28;20051;-62
2023/06/04 02:02:43;;;;;;;3.85;2.22;;;;;;;6.55;69.32;100093.78;5054590;28;20106;-65
2023/06/04 02:05:09;;;;;;;6.65;2.40;;;;;;;6.64;69.28;100111.00;5054407;28;20452;-63
2023/06/04 02:07:38;;;;;;;6.50;2.20;;;;;;;6.69;69.19;100103.59;5054237;28;20033;-62
2023/06/04 02:10:11;;;;;;;2.95;2.10;;;;;;;6.79;68.87;100106.56;5054219;28;20083;-62
2023/06/04 02:12:38;;;;;;;7.57;2.15;;;;;;;6.81;68.79;100098.50;5036672;28;20025;-64
2023/06/04 02:15:06;;;;;;;6.72;2.50;;;;;;;7.00;68.44;100112.41;5053862;28;20028;-63
2023/06/04 02:17:37;;;;;;;4.25;2.28;;;;;;;7.16;68.16;100106.97;5036354;28;20456;-64
2023/06/04 02:20:04;;;;;;;5.25;2.15;;;;;;;7.41;67.41;100124.09;5053965;28;20515;-62
2023/06/04 02:22:30;;;;;;;6.03;2.05;;;;;;;7.64;66.64;100115.59;5053905;28;20468;-62
2023/06/04 02:24:55;;;;;;;3.15;1.95;;;;;;;7.92;65.73;100122.69;5054169;28;20037;-63
2023/06/04 02:27:21;;;;;;;3.50;2.00;;;;;;;8.18;64.65;100120.13;5054030;28;20066;-71
2023/06/04 02:29:46;;;;;;;3.05;2.05;;;;;;;8.55;64.25;100119.50;5054175;28;20081;-63
2023/06/04 02:32:12;;;;;;;3.00;2.10;;;;;;;8.94;62.93;100119.53;5053677;28;20032;-62
2023/06/04 02:34:37;;;;;;;6.10;2.30;;;;;;;9.37;62.09;100131.72;5053866;28;20033;-63
2023/06/04 02:37:03;;;;;;;2.65;1.80;;;;;;;9.64;60.19;100134.25;5035618;28;20106;-63
2023/06/04 02:39:29;;;;;;;5.18;2.30;;;;;;;9.93;59.38;100131.25;5053890;28;20436;-64
2023/06/04 02:41:54;;;;;;;3.13;1.80;;;;;;;10.15;58.62;100132.38;5053806;28;20090;-63
2023/06/04 02:44:20;;;;;;;4.25;1.85;;;;;;;10.16;58.51;100140.28;5035975;28;20116;-62
2023/06/04 02:46:46;;;;;;;4.45;1.88;;;;;;;10.07;58.34;100142.78;5053544;28;20111;-62
2023/06/04 02:49:14;;;;;;;3.85;2.45;;;;;;;9.93;58.74;100143.81;5036574;28;20411;-63
2023/06/04 02:51:43;;;;;;;6.28;2.13;;;;;;;9.81;59.03;100141.03;5053628;28;20029;-62
2023/06/04 02:54:09;;;;;;;6.55;2.05;;;;;;;9.69;59.39;100149.97;5053068;28;20421;-62
2023/06/04 02:56:36;;;;;;;4.78;1.70;;;;;;;9.69;59.74;100152.63;5053585;28;20043;-63
2023/06/04 02:59:03;;;;;;;5.75;1.90;;;;;;;9.74;59.68;100156.66;5053801;28;20106;-64
2023/06/04 03:01:28;;;;;;;5.47;2.25;;;;;;;9.80;59.32;100128.63;5052245;28;20032;-62
2023/06/04 03:03:54;;;;;;;4.95;1.77;;;;;;;10.43;58.00;100160.66;5052969;28;20033;-65
2023/06/04 03:06:21;;;;;;;2.70;1.92;;;;;;;10.90;56.51;100155.31;5053944;28;20393;-63
2023/06/04 03:08:48;;;;;;;2.58;1.75;;;;;;;11.58;54.90;100169.78;5053317;28;20163;-62
2023/06/04 03:11:14;;;;;;;6.32;1.67;;;;;;;12.15;53.45;100167.06;5034804;28;20029;-63
2023/06/04 03:13:40;;;;;;;3.88;1.63;;;;;;;12.78;51.50;100169.91;5052718;28;21700;-62
2023/06/04 03:16:12;;;;;;;3.13;1.45;;;;;;;13.18;50.14;100170.16;5035414;28;20515;-62
2023/06/04 03:18:39;;;;;;;6.60;1.73;;;;;;;13.43;49.15;100146.53;5032038;28;20053;-63
2023/06/04 03:21:05;;;;;;;3.85;1.85;;;;;;;14.05;47.68;100185.00;5032134;28;20072;-61
2023/06/04 03:23:31;;;;;;;3.72;1.60;;;;;;;14.59;46.57;100181.09;5032887;28;20088;-62
2023/06/04 03:25:57;;;;;;;2.38;1.30;;;;;;;14.87;45.57;100176.75;5032522;28;20113;-63
2023/06/04 03:28:23;;;;;;;3.78;1.60;;;;;;;15.37;44.41;100185.59;5016374;28;20346;-63
2023/06/04 03:30:48;;;;;;;2.20;1.50;;;;;;;15.85;43.35;100197.19;5027401;28;20340;-63
2023/06/04 03:33:14;;;;;;;3.35;1.55;;;;;;;16.33;42.16;100197.97;5013123;28;20045;-63
2023/06/04 03:35:42;;;;;;;5.22;1.65;;;;;;;16.87;41.18;100188.16;5025205;28;20053;-63
2023/06/04 03:38:08;;;;;;;1.92;1.45;;;;;;;17.29;40.07;100182.06;5033158;28;20048;-63
2023/06/04 03:40:34;;;;;;;4.18;1.90;;;;;;;17.64;38.63;100190.22;5032655;28;20038;-63
2023/06/04 03:43:00;;;;;;;7.35;2.00;;;;;;;17.85;38.21;100191.69;5031795;28;20078;-62
2023/06/04 03:45:26;;;;;;;3.28;1.60;;;;;;;18.26;37.58;100208.13;5027996;28;20022;-69
2023/06/04 03:47:52;;;;;;;3.13;1.90;;;;;;;18.62;37.05;100196.19;5016443;28;20120;-64
2023/06/04 03:50:20;;;;;;;2.45;1.75;;;;;;;19.19;35.80;100203.50;5012243;28;20120;-64
2023/06/04 03:52:47;;;;;;;2.53;1.63;;;;;;;19.71;34.70;100200.50;5013867;28;20155;-63
2023/06/04 03:55:13;;;;;;;5.78;1.60;;;;;;;20.18;33.83;100193.41;5031129;28;20038;-62
2023/06/04 03:57:39;;;;;;;4.13;1.67;;;;;;;20.47;33.01;100202.75;5032879;28;20029;-63
2023/06/04 04:00:11;;;;;;;4.68;1.77;;;;;;;21.18;31.96;100204.41;5032307;28;20030;-63
2023/06/04 04:02:37;;;;;;;8.30;1.90;;;;;;;21.69;31.00;100202.91;5031397;28;20033;-63
2023/06/04 04:05:03;;;;;;;6.30;1.77;;;;;;;22.14;30.05;100198.25;5032441;28;20363;-64
2023/06/04 04:07:29;;;;;;;3.55;1.38;;;;;;;22.74;29.20;100211.78;5031375;28;20025;-64
2023/06/04 04:09:55;;;;;;;3.58;1.30;;;;;;;23.00;28.71;100157.59;5020510;28;20397;-63
2023/06/04 04:12:20;;;;;;;2.80;1.40;;;;;;;23.90;27.38;100195.19;5011218;28;20033;-62
2023/06/04 04:14:47;;;;;;;2.80;1.58;;;;;;;24.29;26.70;100203.81;5023127;28;20048;-63
2023/06/04 04:17:16;;;;;;;3.55;1.27;;;;;;;24.79;25.92;100209.84;5031039;28;20520;-62
2023/06/04 04:19:42;;;;;;;1.73;1.33;;;;;;;25.55;25.43;100220.59;5047541;28;20136;-63
2023/06/04 04:22:08;;;;;;;2.45;1.10;;;;;;;26.29;24.16;100214.94;5052142;28;20369;-63
2023/06/04 04:24:36;;;;;;;2.60;1.20;;;;;;;26.65;23.58;100182.41;5052081;28;20036;-63
2023/06/04 04:27:03;;;;;;;2.60;1.33;;;;;;;27.26;22.73;100220.44;5052118;28;20044;-63
2023/06/04 04:29:32;;;;;;;1.38;1.23;;;;;;;27.53;22.42;100228.47;5051723;28;20087;-62
2023/06/04 04:32:17;;;;;;;2.45;1.30;;;;;;;27.93;21.81;100226.13;5017978;28;20048;-72
2023/06/04 04:34:54;;;;;;;3.67;1.20;;;;;;;28.65;21.67;100219.09;5050716;28;20453;-63
2023/06/04 04:37:24;;;;;;;7.18;1.55;;;;;;;28.98;20.46;100219.69;5052245;28;20453;-63
2023/06/04 04:39:52;;;;;;;1.30;1.17;;;;;;;29.50;20.26;100221.75;5034187;28;20031;-67
2023/06/04 04:42:18;;;;;;;3.50;1.02;;;;;;;29.83;19.97;100202.91;5051616;28;20768;-63
2023/06/04 04:44:47;;;;;;;4.05;0.90;;;;;;;30.46;19.02;100227.97;5034289;28;20053;-64
2023/06/04 04:47:14;;;;;;;1.83;1.10;;;;;;;30.81;18.48;100228.03;5033431;28;20119;-65
2023/06/04 04:49:40;;;;;;;1.88;1.05;;;;;;;30.93;18.70;100229.66;5033625;28;20390;-62
2023/06/04 04:52:06;;;;;;;4.20;1.08;;;;;;;31.14;18.13;100207.06;5051220;28;20116;-63
2023/06/04 04:54:31;;;;;;;2.10;1.13;;;;;;;31.50;17.41;100214.00;5051159;28;20035;-64
2023/06/04 04:56:56;;;;;;;2.47;1.08;;;;;;;31.88;17.25;100230.88;5052020;28;20037;-63
2023/06/04 04:59:22;;;;;;;3.00;1.08;;;;;;;31.95;17.38;100224.31;5051343;28;20108;-66
2023/06/04 05:01:47;;;;;;;1.40;0.90;;;;;;;31.98;17.05;100232.09;5051804;28;20036;-67
2023/06/04 05:04:13;;;;;;;2.03;0.98;;;;;;;32.16;16.63;100226.25;5052281;28;20506;-64
2023/06/04 05:06:38;;;;;;;1.83;0.90;;;;;;;32.19;16.75;100224.88;5052052;28;20059;-63
2023/06/04 05:09:04;;;;;;;1.60;0.90;;;;;;;32.36;16.50;100219.28;5051370;28;20410;-64
2023/06/04 05:11:29;;;;;;;3.70;0.98;;;;;;;32.60;16.39;100230.06;5051984;28;20029;-73
2023/06/04 05:13:55;;;;;;;3.78;0.80;;;;;;;33.30;15.44;100238.47;5052333;28;20025;-62
2023/06/04 05:16:22;;;;;;;3.10;1.00;;;;;;;33.74;15.23;100206.00;5040956;28;20061;-66
2023/06/04 05:18:51;;;;;;;1.30;1.02;;;;;;;34.35;14.83;100241.56;5038907;28;20053;-65
2023/06/04 05:21:17;;;;;;;1.23;0.90;;;;;;;34.39;14.45;100219.63;5051985;28;20465;-65
2023/06/04 05:23:45;;;;;;;1.13;0.80;;;;;;;34.91;14.11;100247.53;5052389;28;20087;-62
2023/06/04 05:26:10;;;;;;;1.60;0.90;;;;;;;35.44;13.93;100238.06;5055457;28;20094;-63
2023/06/04 05:28:35;;;;;;;1.15;0.73;;;;;;;35.87;13.33;100237.72;5055194;28;20036;-63
2023/06/04 05:31:02;;;;;;;3.53;0.98;;;;;;;36.37;12.52;100232.22;5055309;28;20025;-65
2023/06/04 05:33:30;;;;;;;4.15;1.00;;;;;;;36.65;12.49;100218.69;5055438;28;20116;-63
2023/06/04 05:35:57;;;;;;;1.85;1.00;;;;;;;37.08;11.69;100229.25;5054639;28;20032;-64
2023/06/04 05:38:25;;;;;;;3.22;1.15;;;;;;;37.20;12.41;100234.47;5054600;28;20513;-64
2023/06/04 05:40:53;;;;;;;1.80;1.17;;;;;;;37.56;11.75;100234.13;5036516;28;20868;-64
2023/06/04 05:43:21;;;;;;;2.35;1.25;;;;;;;38.12;11.80;100234.63;5036664;28;20021;-65
2023/06/04 05:45:46;;;;;;;2.65;1.10;;;;;;;38.44;11.24;100215.44;5053656;28;20157;-63
2023/06/04 05:48:12;;;;;;;2.95;1.20;;;;;;;38.90;11.07;100237.13;5051299;28;20441;-63
2023/06/04 05:50:38;;;;;;;2.45;0.90;;;;;;;39.21;10.74;100204.97;5054063;28;20029;-64
2023/06/04 05:53:03;;;;;;;1.85;1.05;;;;;;;39.76;10.14;100229.44;5053575;28;20047;-64
2023/06/04 05:55:29;;;;;;;1.25;0.95;;;;;;;39.27;10.06;100228.94;5054174;28;20103;-64
2023/06/04 05:57:56;;;;;;;2.03;0.98;;;;;;;39.31;10.32;100229.16;5053649;28;20017;-64
2023/06/04 06:00:22;;;;;;;3.78;0.88;;;;;;;38.89;10.65;100235.44;5054177;28;20044;-65
2023/06/04 06:02:49;;;;;;;3.35;1.10;;;;;;;38.57;10.61;100233.44;5050885;28;20325;-64
2023/06/04 06:05:15;;;;;;;1.52;0.80;;;;;;;37.18;11.57;100239.50;5036051;28;20037;-64
2023/06/04 06:07:41;;;;;;;0.93;0.93;;;;;;;36.27;12.31;100235.88;5053152;28;20025;-63
2023/06/04 06:10:08;;;;;;;0.70;0.65;;;;;;;36.87;11.84;100234.13;5051124;28;20040;-65
2023/06/04 06:12:33;;;;;;;0.90;0.73;;;;;;;36.20;11.91;100224.22;5036557;28;20040;-63
2023/06/04 06:14:59;;;;;;;1.35;0.90;;;;;;;36.52;11.54;100233.28;5035251;28;20094;-64
2023/06/04 06:17:25;;;;;;;1.20;0.55;;;;;;;35.82;12.19;100223.81;5054098;28;20108;-64
2023/06/04 06:19:52;;;;;;;1.98;1.00;;;;;;;36.74;11.27;100230.91;5054115;28;20506;-64
2023/06/04 06:22:18;;;;;;;0.65;0.60;;;;;;;36.65;11.38;100238.19;5053456;28;20174;-65
2023/06/04 06:24:43;;;;;;;1.02;0.77;;;;;;;36.80;11.60;100223.34;5053846;28;20049;-64
2023/06/04 06:27:10;;;;;;;0.80;0.80;;;;;;;37.12;11.28;100235.91;5053755;28;20714;-63
2023/06/04 06:29:35;;;;;;;1.60;0.80;;;;;;;36.34;11.83;100235.56;5053897;28;20514;-65
2023/06/04 06:32:02;;;;;;;1.55;0.60;;;;;;;34.79;12.80;100245.00;5054094;28;20037;-63
2023/06/04 06:34:28;;;;;;;0.93;0.77;;;;;;;33.86;13.40;100237.19;5053097;28;20031;-64
2023/06/04 06:36:54;;;;;;;0.70;0.50;;;;;;;34.21;13.61;100234.84;5053600;28;20273;-64
2023/06/04 06:39:19;;;;;;;1.33;0.75;;;;;;;32.48;14.45;100217.19;5053674;28;20041;-64
2023/06/04 06:41:45;;;;;;;0.50;0.50;;;;;;;29.87;16.41;100220.63;5035452;28;20029;-64
2023/06/04 06:44:11;;;;;;;3.28;0.68;;;;;;;29.89;16.83;100240.56;5053713;28;20083;-63
2023/06/04 06:46:36;;;;;;;1.02;0.60;;;;;;;32.81;14.10;100228.31;5035748;28;20108;-65
2023/06/04 06:49:02;;;;;;;1.55;0.73;;;;;;;35.99;12.18;100229.88;5053701;28;20025;-59
2023/06/04 06:51:27;;;;;;;1.02;0.60;;;;;;;38.12;10.33;100231.81;5053138;28;20021;-60
2023/06/04 06:53:53;;;;;;;2.70;0.70;;;;;;;36.55;11.37;100218.75;5034530;28;20033;-60
2023/06/04 06:56:18;;;;;;;2.28;0.73;;;;;;;37.60;10.39;100215.63;5053286;28;20363;-56
2023/06/04 06:58:45;;;;;;;1.85;0.70;;;;;;;39.55;9.31;100234.63;5053169;28;20033;-58
2023/06/04 07:01:10;;;;;;;2.25;0.70;;;;;;;41.71;8.05;100231.88;5035723;28;20467;-56
2023/06/04 07:03:36;;;;;;;2.00;0.70;;;;;;;42.64;7.47;100215.00;5052906;28;20117;-60
2023/06/04 07:06:02;;;;;;;1.02;0.70;;;;;;;41.29;8.09;100221.75;5053234;28;20027;-55
2023/06/04 07:08:28;;;;;;;1.83;0.57;;;;;;;38.16;9.53;100229.25;5052790;28;20090;-53
2023/06/04 07:10:54;;;;;;;3.13;0.63;;;;;;;37.97;9.96;100229.22;5052831;28;20029;-59
2023/06/04 07:13:19;;;;;;;0.68;0.68;;;;;;;39.45;9.38;100216.06;5051851;28;20021;-61
2023/06/04 07:15:45;;;;;;;0.80;0.77;;;;;;;40.99;8.62;100234.59;5052159;28;20033;-61
2023/06/04 07:18:11;;;;;;;2.88;0.90;;;;;;;42.06;8.08;100217.09;5053181;28;20049;-61
2023/06/04 07:20:36;;;;;;;1.23;0.80;;;;;;;42.49;7.50;100233.22;5052976;28;20106;-63
2023/06/04 07:23:02;;;;;;;2.92;0.50;;;;;;;42.58;7.29;100233.25;5052959;28;20055;-53
2023/06/04 07:25:27;;;;;;;1.95;0.70;;;;;;;40.48;7.95;100237.50;5035370;28;20134;-60
2023/06/04 07:27:53;;;;;;;2.08;0.80;;;;;;;37.39;10.46;100228.16;5052496;28;20024;-58
2023/06/04 07:30:18;;;;;;;1.27;1.00;;;;;;;34.51;12.37;100241.63;5052938;28;20127;-57
2023/06/04 07:32:48;;;;;;;3.10;0.90;;;;;;;32.32;14.04;100241.13;5035144;28;20078;-57
2023/06/04 07:35:13;;;;;;;0.82;0.82;;;;;;;30.80;14.80;100216.16;5052415;28;20353;-55
2023/06/04 07:37:39;;;;;;;1.38;0.75;;;;;;;32.11;14.11;100228.94;5053023;28;20043;-59
2023/06/04 07:40:05;;;;;;;1.23;0.88;;;;;;;34.93;11.73;100225.84;5053126;28;20044;-56
2023/06/04 07:42:30;;;;;;;2.25;0.70;;;;;;;37.16;10.14;100199.91;5051821;28;20029;-65
2023/06/04 07:44:56;;;;;;;2.05;0.80;;;;;;;38.56;9.09;100215.00;5051197;28;20032;-55
2023/06/04 07:47:22;;;;;;;3.50;0.73;;;;;;;39.81;8.31;100241.69;5052299;28;20033;-52
2023/06/04 07:49:47;;;;;;;1.95;0.73;;;;;;;41.73;7.87;100229.59;5052299;28;20108;-53
2023/06/04 07:52:14;;;;;;;2.05;0.82;;;;;;;42.84;7.00;100205.06;5052532;28;20068;-53
2023/06/04 07:54:41;;;;;;;1.02;0.70;;;;;;;42.79;6.52;100201.59;5052353;28;20024;-56
2023/06/04 07:57:07;;;;;;;1.75;0.90;;;;;;;39.77;8.47;100241.47;5052207;28;20096;-55
2023/06/04 07:59:32;;;;;;;2.65;0.70;;;;;;;36.27;10.53;100227.53;5051976;28;20349;-54
2023/06/04 08:01:58;;;;;;;0.70;0.50;;;;;;;33.10;12.38;100225.28;5052206;28;20181;-48
2023/06/04 08:04:23;;;;;;;4.28;0.80;;;;;;;30.65;14.00;100244.38;5051634;28;20036;-54
2023/06/04 08:06:49;;;;;;;14.15;12.80;;;;;;;28.73;15.50;100236.34;5052084;28;20032;-54
2023/06/04 08:09:15;;;;;;;1.45;1.35;;;;;;;27.14;16.79;100239.56;5052304;28;20029;-51
2023/06/04 08:11:43;;;;;;;1.98;0.77;;;;;;;27.87;16.14;100250.97;5052430;28;20032;-55
2023/06/04 08:14:09;;;;;;;0.90;0.60;;;;;;;30.48;14.21;100235.97;5052244;28;20033;-56
2023/06/04 08:16:35;;;;;;;0.90;0.55;;;;;;;32.43;12.74;100232.91;5051111;28;20111;-58
2023/06/04 08:19:20;;;;;;;3.38;0.77;;;;;;;32.00;12.79;100235.44;5037087;28;20045;-55
2023/06/04 08:21:57;;;;;;;1.67;0.80;;;;;;;30.00;13.98;100238.03;5051110;28;20029;-60
2023/06/04 08:24:38;;;;;;;3.35;0.70;;;;;;;28.00;15.39;100247.22;5051480;28;20029;-58
2023/06/04 08:27:13;;;;;;;1.50;0.50;;;;;;;26.03;17.25;100222.19;5052000;28;20041;-58
2023/06/04 08:29:49;;;;;;;1.55;0.93;;;;;;;24.57;19.15;100246.63;5051920;28;20080;-53
2023/06/04 08:32:35;;;;;;;1.85;0.70;;;;;;;23.29;20.90;100254.94;5037385;28;20028;-61
2023/06/04 08:35:03;;;;;;;1.42;0.80;;;;;;;22.15;22.54;100249.03;5052215;28;20352;-56
2023/06/04 08:37:30;;;;;;;1.85;0.68;;;;;;;21.34;23.87;100269.63;5052015;28;20590;-55
2023/06/04 08:39:55;;;;;;;4.07;0.90;;;;;;;20.68;24.84;100261.09;5033729;28;20445;-54
2023/06/04 08:42:31;;;;;;;2.10;0.75;;;;;;;20.18;25.89;100258.63;5052110;28;20024;-56
2023/06/04 08:44:58;;;;;;;3.63;0.90;;;;;;;19.87;25.93;100252.09;5051670;28;20029;-55
2023/06/04 08:47:26;;;;;;;0.73;0.68;;;;;;;19.84;26.53;100260.59;5051590;28;20044;-58
2023/06/04 08:49:52;;;;;;;2.78;0.90;;;;;;;19.83;26.44;100229.00;5051574;28;20044;-53
2023/06/04 08:52:21;;;;;;;6.13;0.80;;;;;;;20.26;26.11;100257.75;5034226;28;20408;-56
2023/06/04 08:54:51;;;;;;;2.15;0.93;;;;;;;20.37;25.48;100250.03;5052059;28;20037;-56
2023/06/04 08:57:19;;;;;;;0.88;0.77;;;;;;;20.25;26.45;100247.88;5051623;28;20052;-53
2023/06/04 08:59:46;;;;;;;3.20;1.00;;;;;;;19.82;26.71;100257.19;5055240;28;20453;-58
2023/06/04 09:02:15;;;;;;;2.53;0.98;;;;;;;19.43;26.77;100264.22;5055367;28;20028;-64
2023/06/04 09:04:42;;;;;;;3.67;0.85;;;;;;;18.82;27.22;100236.56;5038508;28;20029;-61
2023/06/04 09:07:10;;;;;;;1.27;0.70;;;;;;;18.61;28.35;100267.69;5055351;28;20385;-57
2023/06/04 09:09:39;;;;;;;3.88;0.90;;;;;;;18.48;28.42;100269.00;5055436;28;20025;-56
2023/06/04 09:12:09;;;;;;;4.40;1.10;;;;;;;18.12;29.48;100233.13;5055754;28;20461;-58
2023/06/04 09:14:35;;;;;;;2.35;1.10;;;;;;;18.14;29.61;100250.06;5055564;28;20349;-58
2023/06/04 09:17:00;;;;;;;2.47;0.98;;;;;;;18.29;29.78;100263.84;5055281;28;20056;-55
2023/06/04 09:19:26;;;;;;;2.08;1.10;;;;;;;18.36;30.10;100282.00;5055157;28;20462;-63
2023/06/04 09:21:56;;;;;;;2.70;1.10;;;;;;;18.45;29.62;100269.34;5054773;28;20043;-53
2023/06/04 09:24:24;;;;;;;3.00;1.23;;;;;;;18.67;28.22;100277.00;5055632;28;20075;-55
2023/06/04 09:26:50;;;;;;;1.95;1.00;;;;;;;18.75;27.76;100263.50;5037234;28;20032;-58
2023/06/04 09:29:18;;;;;;;2.35;0.98;;;;;;;19.02;27.80;100254.19;5055109;28;20040;-53
2023/06/04 09:31:46;;;;;;;2.63;0.75;;;;;;;19.48;27.55;100280.00;5055500;28;20037;-61
2023/06/04 09:34:12;;;;;;;1.20;0.80;;;;;;;19.76;26.51;100271.44;5055633;28;20029;-57
2023/06/04 09:36:38;;;;;;;3.13;1.00;;;;;;;20.09;26.09;100268.69;5054978;28;20086;-60
2023/06/04 09:39:15;;;;;;;1.90;0.93;;;;;;;20.42;25.24;100275.88;5055279;28;20965;-59
2023/06/04 09:41:40;;;;;;;6.97;1.10;;;;;;;20.32;25.41;100270.63;5055098;28;20043;-58
2023/06/04 09:44:10;;;;;;;2.03;1.00;;;;;;;20.17;25.37;100256.94;5054874;28;20029;-58
2023/06/04 09:46:36;;;;;;;1.08;0.90;;;;;;;20.05;24.87;100280.94;5054249;28;20028;-56
2023/06/04 09:49:06;;;;;;;2.90;0.60;;;;;;;19.88;24.99;100264.63;5054865;28;20044;-57
2023/06/04 09:51:32;;;;;;;1.55;1.10;;;;;;;20.01;25.13;100265.97;5054625;28;20143;-57
2023/06/04 09:54:00;;;;;;;2.45;1.00;;;;;;;20.00;24.80;100267.00;5054326;28;20029;-56
2023/06/04 09:56:27;;;;;;;3.13;1.05;;;;;;;20.12;23.98;100260.19;5036658;28;20024;-59
2023/06/04 09:59:02;;;;;;;1.85;0.75;;;;;;;20.54;23.91;100268.16;5054249;28;20334;-54
2023/06/04 10:01:30;;;;;;;3.85;0.80;;;;;;;20.83;24.04;100266.63;5053609;28;20044;-58
2023/06/04 10:04:02;;;;;;;2.58;1.00;;;;;;;21.04;23.97;100275.00;5053321;28;20045;-58
2023/06/04 10:06:33;;;;;;;1.20;0.80;;;;;;;21.17;24.24;100251.75;5054286;28;20036;-58
2023/06/04 10:09:03;;;;;;;2.85;1.08;;;;;;;21.21;23.97;100270.25;5054099;28;20118;-53
2023/06/04 10:11:41;;;;;;;1.20;0.98;;;;;;;21.43;23.78;100264.97;5053947;28;20040;-55
2023/06/04 10:14:16;;;;;;;2.00;0.80;;;;;;;21.49;23.17;100233.41;5054394;28;20041;-55
2023/06/04 10:16:42;;;;;;;0.98;0.80;;;;;;;21.74;22.66;100255.00;5054425;28;20357;-58
2023/06/04 10:19:08;;;;;;;1.55;0.95;;;;;;;21.63;22.21;100262.53;5053421;28;20052;-57
2023/06/04 10:21:36;;;;;;;3.10;1.00;;;;;;;21.40;22.72;100251.72;5054293;28;20037;-58
2023/06/04 10:24:02;;;;;;;1.88;0.85;;;;;;;21.05;22.76;100245.88;5054394;28;20033;-59
2023/06/04 10:26:27;;;;;;;2.33;0.82;;;;;;;20.62;23.33;100246.34;5036350;28;20032;-58
2023/06/04 10:28:53;;;;;;;1.80;1.02;;;;;;;20.47;23.83;100244.38;5053971;28;20148;-57
2023/06/04 10:31:19;;;;;;;5.45;1.40;;;;;;;20.66;23.60;100250.38;5054241;28;20037;-58
2023/06/04 10:33:45;;;;;;;3.20;0.98;;;;;;;20.77;24.31;100258.16;5053536;28;20128;-60
2023/06/04 10:36:21;;;;;;;4.22;1.30;;;;;;;20.99;23.73;100252.91;5053361;28;20024;-56
2023/06/04 10:38:51;;;;;;;2.22;0.90;;;;;;;20.88;24.04;100262.34;5036415;28;20029;-62
2023/06/04 10:41:18;;;;;;;5.20;1.05;;;;;;;20.50;24.90;100260.34;5053607;28;20029;-64
2023/06/04 10:44:00;;;;;;;3.85;1.20;;;;;;;20.40;25.19;100259.72;5054012;28;20068;-55
2023/06/04 10:46:25;;;;;;;3.33;1.00;;;;;;;20.17;25.31;100221.59;5036012;28;20104;-53
2023/06/04 10:48:53;;;;;;;1.55;1.10;;;;;;;20.36;24.87;100250.22;5053943;28;20025;-59
2023/06/04 10:51:32;;;;;;;2.42;1.15;;;;;;;20.48;24.85;100259.66;5053738;28;20044;-66
2023/06/04 10:54:02;;;;;;;2.50;1.25;;;;;;;20.47;24.60;100255.25;5053702;28;20071;-56
2023/06/04 10:56:31;;;;;;;1.67;0.77;;;;;;;20.62;24.35;100268.97;5053296;28;20037;-57
2023/06/04 10:58:57;;;;;;;2.33;1.15;;;;;;;20.65;24.12;100265.00;5053478;28;20471;-55
2023/06/04 11:01:31;;;;;;;1.33;0.80;;;;;;;20.82;23.52;100264.94;5053060;28;20037;-55
2023/06/04 11:03:57;;;;;;;3.25;0.77;;;;;;;20.94;23.02;100264.34;5035518;28;20037;-56
2023/06/04 11:06:25;;;;;;;1.77;1.10;;;;;;;21.14;23.07;100263.84;5053375;28;20350;-57
2023/06/04 11:09:05;;;;;;;1.48;0.80;;;;;;;21.49;22.32;100264.22;5053575;28;20044;-55
2023/06/04 11:11:31;;;;;;;1.48;0.95;;;;;;;21.27;22.17;100249.63;5053199;28;20059;-54
2023/06/04 11:14:11;;;;;;;2.78;1.05;;;;;;;21.01;22.44;100250.88;5053113;28;20433;-57
2023/06/04 11:16:37;;;;;;;1.92;1.17;;;;;;;20.42;22.41;100243.22;5052578;28;20412;-53
2023/06/04 11:19:03;;;;;;;5.38;1.10;;;;;;;19.99;23.04;100249.00;5053084;28;20106;-55
2023/06/04 11:21:29;;;;;;;2.88;1.40;;;;;;;19.22;23.93;100191.44;5052174;28;20072;-57
2023/06/04 11:23:57;;;;;;;7.65;1.20;;;;;;;19.32;24.35;100246.44;5052565;28;20124;-59
2023/06/04 11:26:38;;;;;;;1.95;1.10;;;;;;;19.49;24.25;100249.09;5053112;28;20044;-56